sensor_id;sensor_type;location;lat;lon;timestamp;pressure;altitude;pressure_sealevel;temperature;humidity
74230;BME280;62589;12.568;99.958;2023-04-06T00:02:05;100667.66;;;34.17;45.36
74230;BME280;62589;12.568;99.958;2023-04-06T00:04:32;100670.44;;;34.20;45.11
74230;BME280;62589;12.568;99.958;2023-04-06T00:06:58;100682.78;;;34.19;44.85
74230;BME280;62589;12.568;99.958;2023-04-06T00:09:24;100690.75;;;34.24;44.80
74230;BME280;62589;12.568;99.958;2023-04-06T00:11:51;100682.78;;;34.26;44.90
74230;BME280;62589;12.568;99.958;2023-04-06T00:14:17;100691.56;;;34.28;44.89
74230;BME280;62589;12.568;99.958;2023-04-06T00:16:44;100687.56;;;34.33;44.60
74230;BME280;62589;12.568;99.958;2023-04-06T00:19:10;100692.75;;;34.34;44.71
74230;BME280;62589;12.568;99.958;2023-04-06T00:21:37;100693.13;;;34.40;44.16
74230;BME280;62589;12.568;99.958;2023-04-06T00:24:04;100697.13;;;34.42;44.19
74230;BME280;62589;12.568;99.958;2023-04-06T00:26:30;100697.13;;;34.50;43.94
74230;BME280;62589;12.568;99.958;2023-04-06T00:28:57;100698.28;;;34.56;43.89
74230;BME280;62589;12.568;99.958;2023-04-06T00:31:24;100707.44;;;34.60;43.75
74230;BME280;62589;12.568;99.958;2023-04-06T00:33:51;100715.00;;;34.66;43.82
74230;BME280;62589;12.568;99.958;2023-04-06T00:36:17;100715.75;;;34.74;43.60
74230;BME280;62589;12.568;99.958;2023-04-06T00:38:44;100718.16;;;34.79;43.33
74230;BME280;62589;12.568;99.958;2023-04-06T00:41:11;100721.75;;;34.83;43.57
74230;BME280;62589;12.568;99.958;2023-04-06T00:43:37;100728.50;;;34.89;43.40
74230;BME280;62589;12.568;99.958;2023-04-06T00:46:04;100722.50;;;34.94;43.38
74230;BME280;62589;12.568;99.958;2023-04-06T00:48:31;100723.69;;;35.00;43.44
74230;BME280;62589;12.568;99.958;2023-04-06T00:50:58;100727.66;;;35.06;43.57
74230;BME280;62589;12.568;99.958;2023-04-06T00:53:25;100740.34;;;35.14;43.11
74230;BME280;62589;12.568;99.958;2023-04-06T00:55:51;100735.56;;;35.19;43.43
74230;BME280;62589;12.568;99.958;2023-04-06T00:58:18;100736.72;;;35.25;43.17
74230;BME280;62589;12.568;99.958;2023-04-06T01:00:44;100744.72;;;35.30;43.18
74230;BME280;62589;12.568;99.958;2023-04-06T01:03:11;100753.44;;;35.35;43.13
74230;BME280;62589;12.568;99.958;2023-04-06T01:05:38;100751.84;;;35.38;43.18
74230;BME280;62589;12.568;99.958;2023-04-06T01:08:07;100760.59;;;35.47;42.99
74230;BME280;62589;12.568;99.958;2023-04-06T01:10:33;100764.56;;;35.53;43.00
74230;BME280;62589;12.568;99.958;2023-04-06T01:13:00;100770.88;;;35.57;42.13
74230;BME280;62589;12.568;99.958;2023-04-06T01:15:27;100768.06;;;35.64;42.46
74230;BME280;62589;12.568;99.958;2023-04-06T01:17:54;100772.81;;;35.71;42.11
74230;BME280;62589;12.568;99.958;2023-04-06T01:20:21;100778.41;;;35.74;42.17
74230;BME280;62589;12.568;99.958;2023-04-06T01:22:47;100773.56;;;35.82;42.12
74230;BME280;62589;12.568;99.958;2023-04-06T01:25:14;100785.91;;;35.88;41.77
74230;BME280;62589;12.568;99.958;2023-04-06T01:27:40;100778.69;;;35.94;41.58
74230;BME280;62589;12.568;99.958;2023-04-06T01:30:07;100789.00;;;36.01;41.71
74230;BME280;62589;12.568;99.958;2023-04-06T01:32:34;100782.97;;;36.06;41.68
74230;BME280;62589;12.568;99.958;2023-04-06T01:35:00;100791.34;;;36.09;41.41
74230;BME280;62589;12.568;99.958;2023-04-06T01:37:27;100792.88;;;36.17;41.29
74230;BME280;62589;12.568;99.958;2023-04-06T01:39:55;100792.06;;;36.24;40.93
74230;BME280;62589;12.568;99.958;2023-04-06T01:42:22;100800.00;;;36.29;40.93
74230;BME280;62589;12.568;99.958;2023-04-06T01:44:48;100801.56;;;36.34;40.90
74230;BME280;62589;12.568;99.958;2023-04-06T01:47:15;100793.16;;;36.37;40.48
74230;BME280;62589;12.568;99.958;2023-04-06T01:49:41;100794.69;;;36.42;40.60
74230;BME280;62589;12.568;99.958;2023-04-06T01:52:08;100799.44;;;36.48;40.31
74230;BME280;62589;12.568;99.958;2023-04-06T01:54:34;100803.78;;;36.57;39.87
74230;BME280;62589;12.568;99.958;2023-04-06T01:57:01;100807.31;;;36.61;40.07
74230;BME280;62589;12.568;99.958;2023-04-06T01:59:27;100802.06;;;36.66;40.02
74230;BME280;62589;12.568;99.958;2023-04-06T02:01:54;100809.22;;;36.71;40.01
74230;BME280;62589;12.568;99.958;2023-04-06T02:04:20;100808.41;;;36.77;39.43
74230;BME280;62589;12.568;99.958;2023-04-06T02:06:47;100806.72;;;36.83;39.59
74230;BME280;62589;12.568;99.958;2023-04-06T02:09:14;100814.25;;;36.90;39.23
74230;BME280;62589;12.568;99.958;2023-04-06T02:11:41;100822.19;;;36.95;39.23
74230;BME280;62589;12.568;99.958;2023-04-06T02:14:08;100815.34;;;37.00;39.06
74230;BME280;62589;12.568;99.958;2023-04-06T02:16:34;100808.50;;;37.04;38.96
74230;BME280;62589;12.568;99.958;2023-04-06T02:19:01;100807.22;;;37.12;38.84
74230;BME280;62589;12.568;99.958;2023-04-06T02:21:27;100815.16;;;37.17;38.68
74230;BME280;62589;12.568;99.958;2023-04-06T02:23:54;100816.66;;;37.26;38.73
74230;BME280;62589;12.568;99.958;2023-04-06T02:26:21;100817.38;;;37.33;38.43
74230;BME280;62589;12.568;99.958;2023-04-06T02:28:47;100823.34;;;37.39;38.32
74230;BME280;62589;12.568;99.958;2023-04-06T02:31:14;100810.81;;;37.47;37.85
74230;BME280;62589;12.568;99.958;2023-04-06T02:33:41;100814.31;;;37.55;37.59
74230;BME280;62589;12.568;99.958;2023-04-06T02:36:07;100813.44;;;37.61;37.86
74230;BME280;62589;12.568;99.958;2023-04-06T02:38:34;100812.97;;;37.66;37.97
74230;BME280;62589;12.568;99.958;2023-04-06T02:41:00;100820.13;;;37.71;37.61
74230;BME280;62589;12.568;99.958;2023-04-06T02:43:27;100819.66;;;37.76;37.75
74230;BME280;62589;12.568;99.958;2023-04-06T02:45:53;100813.94;;;37.83;37.64
74230;BME280;62589;12.568;99.958;2023-04-06T02:48:20;100806.28;;;37.87;37.89
74230;BME280;62589;12.568;99.958;2023-04-06T02:50:46;100813.41;;;37.92;37.29
74230;BME280;62589;12.568;99.958;2023-04-06T02:53:13;100814.97;;;37.96;37.73
74230;BME280;62589;12.568;99.958;2023-04-06T02:55:39;100816.50;;;38.01;37.53
74230;BME280;62589;12.568;99.958;2023-04-06T02:58:05;100815.22;;;38.05;37.88
74230;BME280;62589;12.568;99.958;2023-04-06T03:00:32;100821.16;;;38.11;37.19
74230;BME280;62589;12.568;99.958;2023-04-06T03:02:58;100819.53;;;38.10;36.98
74230;BME280;62589;12.568;99.958;2023-04-06T03:05:25;100816.34;;;38.11;36.92
74230;BME280;62589;12.568;99.958;2023-04-06T03:07:52;100825.56;;;38.12;37.55
74230;BME280;62589;12.568;99.958;2023-04-06T03:10:18;100817.88;;;38.16;36.76
74230;BME280;62589;12.568;99.958;2023-04-06T03:12:44;100817.09;;;38.15;37.34
74230;BME280;62589;12.568;99.958;2023-04-06T03:15:11;100822.66;;;38.19;37.29
74230;BME280;62589;12.568;99.958;2023-04-06T03:17:38;100825.75;;;38.25;36.88
74230;BME280;62589;12.568;99.958;2023-04-06T03:20:05;100824.53;;;38.26;37.02
74230;BME280;62589;12.568;99.958;2023-04-06T03:22:31;100822.03;;;38.31;36.79
74230;BME280;62589;12.568;99.958;2023-04-06T03:24:58;100827.59;;;38.35;36.57
74230;BME280;62589;12.568;99.958;2023-04-06T03:27:27;100816.38;;;38.35;37.01
74230;BME280;62589;12.568;99.958;2023-04-06T03:29:54;100817.50;;;38.41;36.36
74230;BME280;62589;12.568;99.958;2023-04-06T03:32:20;100818.56;;;38.47;36.85
74230;BME280;62589;12.568;99.958;2023-04-06T03:34:46;100820.53;;;38.50;36.75
74230;BME280;62589;12.568;99.958;2023-04-06T03:37:13;100815.69;;;38.50;36.46
74230;BME280;62589;12.568;99.958;2023-04-06T03:39:40;100804.41;;;38.58;36.67
74230;BME280;62589;12.568;99.958;2023-04-06T03:42:06;100811.91;;;38.64;36.08
74230;BME280;62589;12.568;99.958;2023-04-06T03:44:33;100810.22;;;38.67;36.07
74230;BME280;62589;12.568;99.958;2023-04-06T03:46:59;100810.16;;;38.70;35.88
74230;BME280;62589;12.568;99.958;2023-04-06T03:49:26;100798.47;;;38.75;36.12
74230;BME280;62589;12.568;99.958;2023-04-06T03:51:53;100804.81;;;38.79;35.58
74230;BME280;62589;12.568;99.958;2023-04-06T03:54:20;100801.50;;;38.84;36.36
74230;BME280;62589;12.568;99.958;2023-04-06T03:56:46;100796.25;;;38.87;35.74
74230;BME280;62589;12.568;99.958;2023-04-06T03:59:13;100797.03;;;38.87;35.34
74230;BME280;62589;12.568;99.958;2023-04-06T04:01:44;100792.13;;;38.91;35.05
74230;BME280;62589;12.568;99.958;2023-04-06T04:04:10;100799.69;;;38.94;35.50
74230;BME280;62589;12.568;99.958;2023-04-06T04:06:37;100796.47;;;38.96;35.15
74230;BME280;62589;12.568;99.958;2023-04-06T04:09:03;100793.59;;;38.99;35.21
74230;BME280;62589;12.568;99.958;2023-04-06T04:11:30;100789.97;;;39.02;35.27
74230;BME280;62589;12.568;99.958;2023-04-06T04:13:56;100788.22;;;39.08;35.51
74230;BME280;62589;12.568;99.958;2023-04-06T04:16:22;100785.94;;;39.03;34.92
74230;BME280;62589;12.568;99.958;2023-04-06T04:18:49;100789.47;;;39.07;35.12
74230;BME280;62589;12.568;99.958;2023-04-06T04:21:16;100780.94;;;39.11;34.50
74230;BME280;62589;12.568;99.958;2023-04-06T04:23:42;100781.31;;;39.13;34.90
74230;BME280;62589;12.568;99.958;2023-04-06T04:26:10;100781.59;;;39.18;35.22
74230;BME280;62589;12.568;99.958;2023-04-06T04:28:36;100776.00;;;39.18;34.46
74230;BME280;62589;12.568;99.958;2023-04-06T04:31:03;100781.53;;;39.22;34.98
74230;BME280;62589;12.568;99.958;2023-04-06T04:33:29;100769.44;;;39.25;34.54
74230;BME280;62589;12.568;99.958;2023-04-06T04:35:56;100767.78;;;39.28;34.96
74230;BME280;62589;12.568;99.958;2023-04-06T04:38:22;100764.06;;;39.31;34.78
74230;BME280;62589;12.568;99.958;2023-04-06T04:40:49;100755.28;;;39.29;34.65
74230;BME280;62589;12.568;99.958;2023-04-06T04:43:15;100758.03;;;39.32;34.64
74230;BME280;62589;12.568;99.958;2023-04-06T04:45:42;100760.41;;;39.34;34.69
74230;BME280;62589;12.568;99.958;2023-04-06T04:48:08;100753.13;;;39.36;33.99
74230;BME280;62589;12.568;99.958;2023-04-06T04:50:35;100746.00;;;39.32;34.08
74230;BME280;62589;12.568;99.958;2023-04-06T04:53:01;100744.34;;;39.34;32.71
74230;BME280;62589;12.568;99.958;2023-04-06T04:55:31;100741.19;;;39.32;33.34
74230;BME280;62589;12.568;99.958;2023-04-06T04:57:57;100731.09;;;39.35;32.87
74230;BME280;62589;12.568;99.958;2023-04-06T05:00:24;100736.72;;;39.35;32.30
74230;BME280;62589;12.568;99.958;2023-04-06T05:02:51;100726.69;;;39.34;33.11
74230;BME280;62589;12.568;99.958;2023-04-06T05:05:18;100727.41;;;39.38;33.19
74230;BME280;62589;12.568;99.958;2023-04-06T05:07:44;100729.88;;;39.36;33.25
74230;BME280;62589;12.568;99.958;2023-04-06T05:10:11;100725.47;;;39.35;33.06
74230;BME280;62589;12.568;99.958;2023-04-06T05:12:38;100723.03;;;39.37;33.65
74230;BME280;62589;12.568;99.958;2023-04-06T05:15:05;100717.41;;;39.37;33.96
74230;BME280;62589;12.568;99.958;2023-04-06T05:17:32;100707.69;;;39.41;34.59
74230;BME280;62589;12.568;99.958;2023-04-06T05:19:59;100720.50;;;39.42;34.46
74230;BME280;62589;12.568;99.958;2023-04-06T05:22:26;100713.59;;;39.47;35.13
74230;BME280;62589;12.568;99.958;2023-04-06T05:24:52;100704.75;;;39.48;35.50
74230;BME280;62589;12.568;99.958;2023-04-06T05:27:19;100697.44;;;39.51;35.49
74230;BME280;62589;12.568;99.958;2023-04-06T05:29:45;100701.84;;;39.52;35.44
74230;BME280;62589;12.568;99.958;2023-04-06T05:32:12;100690.34;;;39.46;35.67
74230;BME280;62589;12.568;99.958;2023-04-06T05:34:38;100691.13;;;39.47;35.55
74230;BME280;62589;12.568;99.958;2023-04-06T05:37:05;100693.94;;;39.47;35.28
74230;BME280;62589;12.568;99.958;2023-04-06T05:39:31;100685.53;;;39.47;35.72
74230;BME280;62589;12.568;99.958;2023-04-06T05:41:58;100674.63;;;39.49;35.99
74230;BME280;62589;12.568;99.958;2023-04-06T05:44:27;100675.31;;;39.53;35.94
74230;BME280;62589;12.568;99.958;2023-04-06T05:46:54;100666.91;;;39.53;36.00
74230;BME280;62589;12.568;99.958;2023-04-06T05:49:20;100670.50;;;39.54;35.92
74230;BME280;62589;12.568;99.958;2023-04-06T05:51:47;100663.66;;;39.55;35.83
74230;BME280;62589;12.568;99.958;2023-04-06T05:54:13;100663.22;;;39.56;36.04
74230;BME280;62589;12.568;99.958;2023-04-06T05:56:40;100658.38;;;39.57;35.87
74230;BME280;62589;12.568;99.958;2023-04-06T05:59:06;100646.72;;;39.58;35.73
74230;BME280;62589;12.568;99.958;2023-04-06T06:01:33;100642.66;;;39.59;35.58
74230;BME280;62589;12.568;99.958;2023-04-06T06:04:01;100640.38;;;39.54;35.02
74230;BME280;62589;12.568;99.958;2023-04-06T06:06:28;100642.84;;;39.52;35.42
74230;BME280;62589;12.568;99.958;2023-04-06T06:08:56;100631.41;;;39.43;35.10
74230;BME280;62589;12.568;99.958;2023-04-06T06:11:27;100626.56;;;39.43;35.58
74230;BME280;62589;12.568;99.958;2023-04-06T06:13:53;100628.59;;;39.43;36.02
74230;BME280;62589;12.568;99.958;2023-04-06T06:16:20;100624.63;;;39.40;35.75
74230;BME280;62589;12.568;99.958;2023-04-06T06:18:47;100602.25;;;39.37;35.58
74230;BME280;62589;12.568;99.958;2023-04-06T06:21:14;100607.16;;;39.33;35.71
74230;BME280;62589;12.568;99.958;2023-04-06T06:23:43;100605.41;;;39.39;35.58
74230;BME280;62589;12.568;99.958;2023-04-06T06:26:09;100591.72;;;39.41;35.87
74230;BME280;62589;12.568;99.958;2023-04-06T06:28:36;100588.47;;;39.42;36.04
74230;BME280;62589;12.568;99.958;2023-04-06T06:31:03;100581.81;;;39.36;34.74
74230;BME280;62589;12.568;99.958;2023-04-06T06:33:29;100575.03;;;39.34;34.85
74230;BME280;62589;12.568;99.958;2023-04-06T06:35:56;100573.28;;;39.40;35.31
74230;BME280;62589;12.568;99.958;2023-04-06T06:38:22;100566.63;;;39.34;35.43
74230;BME280;62589;12.568;99.958;2023-04-06T06:40:49;100569.50;;;39.30;35.56
74230;BME280;62589;12.568;99.958;2023-04-06T06:43:15;100560.63;;;39.32;35.30
74230;BME280;62589;12.568;99.958;2023-04-06T06:45:42;100553.78;;;39.33;35.33
74230;BME280;62589;12.568;99.958;2023-04-06T06:48:08;100547.38;;;39.32;36.15
74230;BME280;62589;12.568;99.958;2023-04-06T06:50:35;100547.81;;;39.31;35.34
74230;BME280;62589;12.568;99.958;2023-04-06T06:53:01;100538.16;;;39.32;35.66
74230;BME280;62589;12.568;99.958;2023-04-06T06:55:28;100543.34;;;39.33;35.63
74230;BME280;62589;12.568;99.958;2023-04-06T06:57:55;100536.50;;;39.34;35.48
74230;BME280;62589;12.568;99.958;2023-04-06T07:00:21;100534.31;;;39.42;35.63
74230;BME280;62589;12.568;99.958;2023-04-06T07:02:48;100524.31;;;39.41;35.20
74230;BME280;62589;12.568;99.958;2023-04-06T07:05:15;100524.31;;;39.41;35.11
74230;BME280;62589;12.568;99.958;2023-04-06T07:07:42;100520.34;;;39.38;35.42
74230;BME280;62589;12.568;99.958;2023-04-06T07:10:09;100521.06;;;39.42;35.21
74230;BME280;62589;12.568;99.958;2023-04-06T07:12:36;100518.69;;;39.41;35.37
74230;BME280;62589;12.568;99.958;2023-04-06T07:15:02;100521.78;;;39.46;35.76
74230;BME280;62589;12.568;99.958;2023-04-06T07:17:29;100517.41;;;39.45;36.44
74230;BME280;62589;12.568;99.958;2023-04-06T07:19:55;100516.97;;;39.47;36.41
74230;BME280;62589;12.568;99.958;2023-04-06T07:22:22;100507.81;;;39.43;37.03
74230;BME280;62589;12.568;99.958;2023-04-06T07:24:48;100501.00;;;39.44;36.94
74230;BME280;62589;12.568;99.958;2023-04-06T07:27:15;100500.09;;;39.31;36.49
74230;BME280;62589;12.568;99.958;2023-04-06T07:29:42;100496.91;;;39.29;36.83
74230;BME280;62589;12.568;99.958;2023-04-06T07:32:08;100487.13;;;39.21;36.98
74230;BME280;62589;12.568;99.958;2023-04-06T07:34:35;100479.75;;;39.27;36.81
74230;BME280;62589;12.568;99.958;2023-04-06T07:37:01;100478.97;;;39.26;36.79
74230;BME280;62589;12.568;99.958;2023-04-06T07:39:28;100466.84;;;39.13;37.24
74230;BME280;62589;12.568;99.958;2023-04-06T07:41:55;100461.22;;;39.13;37.44
74230;BME280;62589;12.568;99.958;2023-04-06T07:44:22;100460.09;;;39.10;37.15
74230;BME280;62589;12.568;99.958;2023-04-06T07:46:48;100460.63;;;39.05;37.11
74230;BME280;62589;12.568;99.958;2023-04-06T07:49:14;100454.22;;;39.05;37.79
74230;BME280;62589;12.568;99.958;2023-04-06T07:51:41;100453.53;;;39.01;36.57
74230;BME280;62589;12.568;99.958;2023-04-06T07:54:09;100455.16;;;38.98;37.14
74230;BME280;62589;12.568;99.958;2023-04-06T07:56:36;100465.97;;;39.00;36.20
74230;BME280;62589;12.568;99.958;2023-04-06T07:59:02;100451.50;;;38.85;36.92
74230;BME280;62589;12.568;99.958;2023-04-06T08:01:29;100449.19;;;38.80;37.50
74230;BME280;62589;12.568;99.958;2023-04-06T08:03:57;100451.44;;;38.69;37.18
74230;BME280;62589;12.568;99.958;2023-04-06T08:06:23;100443.38;;;38.71;38.17
74230;BME280;62589;12.568;99.958;2023-04-06T08:08:50;100452.25;;;38.69;37.52
74230;BME280;62589;12.568;99.958;2023-04-06T08:11:16;100449.34;;;38.73;37.90
74230;BME280;62589;12.568;99.958;2023-04-06T08:13:43;100443.56;;;38.64;38.46
74230;BME280;62589;12.568;99.958;2023-04-06T08:16:09;100441.22;;;38.62;38.75
74230;BME280;62589;12.568;99.958;2023-04-06T08:18:36;100440.53;;;38.55;39.61
74230;BME280;62589;12.568;99.958;2023-04-06T08:21:03;100443.84;;;38.49;39.78
74230;BME280;62589;12.568;99.958;2023-04-06T08:23:29;100449.47;;;38.49;40.01
74230;BME280;62589;12.568;99.958;2023-04-06T08:25:56;100438.31;;;38.46;39.83
74230;BME280;62589;12.568;99.958;2023-04-06T08:28:24;100443.94;;;38.46;39.47
74230;BME280;62589;12.568;99.958;2023-04-06T08:30:50;100434.03;;;38.41;39.50
74230;BME280;62589;12.568;99.958;2023-04-06T08:33:17;100429.66;;;38.40;39.75
74230;BME280;62589;12.568;99.958;2023-04-06T08:35:43;100429.63;;;38.24;40.28
74230;BME280;62589;12.568;99.958;2023-04-06T08:38:10;100423.41;;;38.33;39.91
74230;BME280;62589;12.568;99.958;2023-04-06T08:40:38;100422.22;;;38.14;40.55
74230;BME280;62589;12.568;99.958;2023-04-06T08:43:08;100411.81;;;38.14;41.06
74230;BME280;62589;12.568;99.958;2023-04-06T08:45:35;100410.75;;;38.25;40.13
74230;BME280;62589;12.568;99.958;2023-04-06T08:48:03;100412.78;;;38.04;42.13
74230;BME280;62589;12.568;99.958;2023-04-06T08:50:33;100406.28;;;37.91;40.63
74230;BME280;62589;12.568;99.958;2023-04-06T08:53:01;100419.63;;;37.83;40.89
74230;BME280;62589;12.568;99.958;2023-04-06T08:55:28;100410.16;;;37.77;41.60
74230;BME280;62589;12.568;99.958;2023-04-06T08:57:55;100408.41;;;37.83;42.27
74230;BME280;62589;12.568;99.958;2023-04-06T09:00:22;100417.06;;;37.93;40.78
74230;BME280;62589;12.568;99.958;2023-04-06T09:02:50;100411.03;;;37.74;40.73
74230;BME280;62589;12.568;99.958;2023-04-06T09:05:20;100416.03;;;37.83;40.79
74230;BME280;62589;12.568;99.958;2023-04-06T09:07:46;100409.81;;;37.75;41.73
74230;BME280;62589;12.568;99.958;2023-04-06T09:10:13;100416.34;;;37.69;41.79
74230;BME280;62589;12.568;99.958;2023-04-06T09:12:41;100409.09;;;37.71;41.34
74230;BME280;62589;12.568;99.958;2023-04-06T09:15:18;100407.13;;;37.68;41.71
74230;BME280;62589;12.568;99.958;2023-04-06T09:17:47;100401.84;;;37.74;41.61
74230;BME280;62589;12.568;99.958;2023-04-06T09:20:13;100395.50;;;37.70;42.30
74230;BME280;62589;12.568;99.958;2023-04-06T09:22:40;100399.75;;;37.78;42.13
74230;BME280;62589;12.568;99.958;2023-04-06T09:25:09;100401.75;;;37.77;41.73
74230;BME280;62589;12.568;99.958;2023-04-06T09:27:37;100392.69;;;37.70;41.64
74230;BME280;62589;12.568;99.958;2023-04-06T09:30:07;100391.91;;;37.69;41.71
74230;BME280;62589;12.568;99.958;2023-04-06T09:32:47;100388.75;;;37.67;41.77
74230;BME280;62589;12.568;99.958;2023-04-06T09:35:14;100388.09;;;37.60;41.27
74230;BME280;62589;12.568;99.958;2023-04-06T09:37:45;100384.38;;;37.66;41.33
74230;BME280;62589;12.568;99.958;2023-04-06T09:40:12;100386.38;;;37.66;41.72
74230;BME280;62589;12.568;99.958;2023-04-06T09:42:41;100392.81;;;37.63;41.02
74230;BME280;62589;12.568;99.958;2023-04-06T09:45:09;100398.50;;;37.59;40.88
74230;BME280;62589;12.568;99.958;2023-04-06T09:47:37;100386.41;;;37.62;41.51
74230;BME280;62589;12.568;99.958;2023-04-06T09:50:07;100388.78;;;37.44;39.97
74230;BME280;62589;12.568;99.958;2023-04-06T09:52:47;100386.28;;;37.49;40.82
74230;BME280;62589;12.568;99.958;2023-04-06T09:55:23;100390.97;;;37.56;41.72
74230;BME280;62589;12.568;99.958;2023-04-06T09:57:58;100383.41;;;37.53;41.28
74230;BME280;62589;12.568;99.958;2023-04-06T10:00:28;100380.38;;;37.44;41.95
74230;BME280;62589;12.568;99.958;2023-04-06T10:03:21;100391.09;;;37.49;42.28
74230;BME280;62589;12.568;99.958;2023-04-06T10:05:55;100389.47;;;37.28;42.60
74230;BME280;62589;12.568;99.958;2023-04-06T10:08:28;100384.56;;;37.36;42.39
74230;BME280;62589;12.568;99.958;2023-04-06T10:10:55;100378.59;;;37.34;42.08
74230;BME280;62589;12.568;99.958;2023-04-06T10:13:24;100376.75;;;37.24;43.19
74230;BME280;62589;12.568;99.958;2023-04-06T10:15:52;100375.00;;;37.33;42.61
74230;BME280;62589;12.568;99.958;2023-04-06T10:18:18;100388.13;;;37.36;42.50
74230;BME280;62589;12.568;99.958;2023-04-06T10:21:06;100378.06;;;37.19;43.49
74230;BME280;62589;12.568;99.958;2023-04-06T10:23:57;100378.88;;;37.20;44.12
74230;BME280;62589;12.568;99.958;2023-04-06T10:26:24;100379.00;;;37.09;44.55
74230;BME280;62589;12.568;99.958;2023-04-06T10:28:51;100376.63;;;37.07;44.28
74230;BME280;62589;12.568;99.958;2023-04-06T10:31:25;100373.34;;;37.12;44.06
74230;BME280;62589;12.568;99.958;2023-04-06T10:33:59;100374.41;;;36.99;44.29
74230;BME280;62589;12.568;99.958;2023-04-06T10:36:28;100373.84;;;37.07;42.96
74230;BME280;62589;12.568;99.958;2023-04-06T10:39:00;100376.28;;;37.05;43.61
74230;BME280;62589;12.568;99.958;2023-04-06T10:41:42;100392.69;;;37.03;43.88
74230;BME280;62589;12.568;99.958;2023-04-06T10:44:19;100376.94;;;36.90;44.47
74230;BME280;62589;12.568;99.958;2023-04-06T10:46:57;100386.03;;;36.97;44.16
74230;BME280;62589;12.568;99.958;2023-04-06T10:49:27;100385.66;;;36.95;44.52
74230;BME280;62589;12.568;99.958;2023-04-06T10:51:55;100388.16;;;36.90;44.68
74230;BME280;62589;12.568;99.958;2023-04-06T10:54:24;100393.91;;;36.79;45.63
74230;BME280;62589;12.568;99.958;2023-04-06T10:56:51;100393.47;;;36.80;46.20
74230;BME280;62589;12.568;99.958;2023-04-06T10:59:21;100390.41;;;36.71;46.78
74230;BME280;62589;12.568;99.958;2023-04-06T11:01:48;100390.41;;;36.75;47.62
74230;BME280;62589;12.568;99.958;2023-04-06T11:04:19;100394.84;;;36.69;47.88
74230;BME280;62589;12.568;99.958;2023-04-06T11:06:48;100394.25;;;36.58;48.83
74230;BME280;62589;12.568;99.958;2023-04-06T11:09:26;100398.25;;;36.57;48.63
74230;BME280;62589;12.568;99.958;2023-04-06T11:11:54;100392.28;;;36.55;49.40
74230;BME280;62589;12.568;99.958;2023-04-06T11:14:21;100401.75;;;36.37;49.62
74230;BME280;62589;12.568;99.958;2023-04-06T11:16:48;100389.28;;;36.42;49.93
74230;BME280;62589;12.568;99.958;2023-04-06T11:19:16;100394.19;;;36.34;50.23
74230;BME280;62589;12.568;99.958;2023-04-06T11:21:46;100409.16;;;36.47;49.53
74230;BME280;62589;12.568;99.958;2023-04-06T11:24:24;100404.16;;;36.35;50.46
74230;BME280;62589;12.568;99.958;2023-04-06T11:26:59;100416.06;;;36.39;50.37
74230;BME280;62589;12.568;99.958;2023-04-06T11:29:29;100420.06;;;36.38;49.27
74230;BME280;62589;12.568;99.958;2023-04-06T11:32:03;100424.78;;;36.45;48.45
74230;BME280;62589;12.568;99.958;2023-04-06T11:34:32;100436.28;;;36.51;47.55
74230;BME280;62589;12.568;99.958;2023-04-06T11:37:00;100437.13;;;36.47;47.67
74230;BME280;62589;12.568;99.958;2023-04-06T11:39:28;100439.09;;;36.51;47.40
74230;BME280;62589;12.568;99.958;2023-04-06T11:41:58;100437.03;;;36.55;47.36
74230;BME280;62589;12.568;99.958;2023-04-06T11:44:39;100450.09;;;36.61;47.38
74230;BME280;62589;12.568;99.958;2023-04-06T11:47:07;100446.63;;;36.54;46.97
74230;BME280;62589;12.568;99.958;2023-04-06T11:49:38;100459.50;;;36.47;46.52
74230;BME280;62589;12.568;99.958;2023-04-06T11:52:15;100454.66;;;36.52;46.11
74230;BME280;62589;12.568;99.958;2023-04-06T11:54:42;100467.78;;;36.55;45.91
74230;BME280;62589;12.568;99.958;2023-04-06T11:57:08;100472.22;;;36.52;45.59
74230;BME280;62589;12.568;99.958;2023-04-06T11:59:35;100467.50;;;36.45;46.00
74230;BME280;62589;12.568;99.958;2023-04-06T12:02:03;100480.97;;;36.54;45.53
74230;BME280;62589;12.568;99.958;2023-04-06T12:04:32;100467.50;;;36.45;45.36
74230;BME280;62589;12.568;99.958;2023-04-06T12:06:59;100474.59;;;36.54;45.36
74230;BME280;62589;12.568;99.958;2023-04-06T12:09:26;100480.19;;;36.54;45.25
74230;BME280;62589;12.568;99.958;2023-04-06T12:11:55;100484.16;;;36.56;45.29
74230;BME280;62589;12.568;99.958;2023-04-06T12:14:22;100489.38;;;36.54;44.89
74230;BME280;62589;12.568;99.958;2023-04-06T12:16:49;100494.13;;;36.57;45.20
74230;BME280;62589;12.568;99.958;2023-04-06T12:19:15;100498.94;;;36.57;45.14
74230;BME280;62589;12.568;99.958;2023-04-06T12:21:42;100506.09;;;36.58;44.94
74230;BME280;62589;12.568;99.958;2023-04-06T12:24:09;100514.44;;;36.61;44.84
74230;BME280;62589;12.568;99.958;2023-04-06T12:26:35;100505.25;;;36.61;44.71
74230;BME280;62589;12.568;99.958;2023-04-06T12:29:03;100496.94;;;36.57;44.52
74230;BME280;62589;12.568;99.958;2023-04-06T12:31:36;100504.03;;;36.62;44.37
74230;BME280;62589;12.568;99.958;2023-04-06T12:34:06;100510.63;;;36.48;44.29
74230;BME280;62589;12.568;99.958;2023-04-06T12:36:33;100495.44;;;36.49;44.37
74230;BME280;62589;12.568;99.958;2023-04-06T12:39:00;100505.91;;;36.41;44.50
74230;BME280;62589;12.568;99.958;2023-04-06T12:41:28;100507.53;;;36.39;44.58
74230;BME280;62589;12.568;99.958;2023-04-06T12:43:55;100503.47;;;36.43;44.24